sensor_id;sensor_type;location;lat;lon;timestamp;P1;durP1;ratioP1;P2;durP2;ratioP2
50769;SDS011;36740;48.698;11.472;2022-07-22T00:01:36;18.95;;;12.50;;
50769;SDS011;36740;48.698;11.472;2022-07-22T00:04:21;20.08;;;11.65;;
50769;SDS011;36740;48.698;11.472;2022-07-22T00:07:07;20.45;;;11.52;;
50769;SDS011;36740;48.698;11.472;2022-07-22T00:09:53;21.20;;;14.35;;
50769;SDS011;36740;48.698;11.472;2022-07-22T00:12:38;23.50;;;14.23;;
50769;SDS011;36740;48.698;11.472;2022-07-22T00:15:24;16.38;;;12.90;;
50769;SDS011;36740;48.698;11.472;2022-07-22T00:18:10;19.65;;;11.77;;
50769;SDS011;36740;48.698;11.472;2022-07-22T00:20:55;18.85;;;12.90;;
50769;SDS011;36740;48.698;11.472;2022-07-22T00:23:41;21.35;;;13.43;;
50769;SDS011;36740;48.698;11.472;2022-07-22T00:26:27;18.58;;;12.38;;
50769;SDS011;36740;48.698;11.472;2022-07-22T00:29:12;19.08;;;13.23;;
50769;SDS011;36740;48.698;11.472;2022-07-22T00:31:58;18.23;;;11.88;;
50769;SDS011;36740;48.698;11.472;2022-07-22T00:34:44;20.55;;;13.32;;
50769;SDS011;36740;48.698;11.472;2022-07-22T00:37:29;19.88;;;12.27;;
50769;SDS011;36740;48.698;11.472;2022-07-22T00:40:15;19.45;;;11.60;;
50769;SDS011;36740;48.698;11.472;2022-07-22T00:43:01;16.20;;;10.20;;
50769;SDS011;36740;48.698;11.472;2022-07-22T00:45:46;18.05;;;11.48;;
50769;SDS011;36740;48.698;11.472;2022-07-22T00:48:32;17.15;;;11.85;;
50769;SDS011;36740;48.698;11.472;2022-07-22T00:51:18;18.55;;;10.55;;
50769;SDS011;36740;48.698;11.472;2022-07-22T00:54:04;15.10;;;10.25;;
50769;SDS011;36740;48.698;11.472;2022-07-22T00:56:50;17.95;;;13.10;;
50769;SDS011;36740;48.698;11.472;2022-07-22T00:59:36;22.42;;;10.77;;
50769;SDS011;36740;48.698;11.472;2022-07-22T01:02:23;15.90;;;10.77;;
50769;SDS011;36740;48.698;11.472;2022-07-22T01:05:08;15.52;;;10.60;;
50769;SDS011;36740;48.698;11.472;2022-07-22T01:07:54;17.95;;;9.30;;
50769;SDS011;36740;48.698;11.472;2022-07-22T01:10:43;21.50;;;13.35;;
50769;SDS011;36740;48.698;11.472;2022-07-22T01:13:37;20.15;;;16.35;;
50769;SDS011;36740;48.698;11.472;2022-07-22T01:16:22;21.67;;;13.52;;
50769;SDS011;36740;48.698;11.472;2022-07-22T01:19:08;17.95;;;13.52;;
50769;SDS011;36740;48.698;11.472;2022-07-22T01:21:54;22.05;;;15.27;;
50769;SDS011;36740;48.698;11.472;2022-07-22T01:24:40;19.25;;;12.00;;
50769;SDS011;36740;48.698;11.472;2022-07-22T01:27:25;19.48;;;13.27;;
50769;SDS011;36740;48.698;11.472;2022-07-22T01:30:11;20.67;;;13.52;;
50769;SDS011;36740;48.698;11.472;2022-07-22T01:32:57;23.90;;;14.60;;
50769;SDS011;36740;48.698;11.472;2022-07-22T01:35:42;17.17;;;12.25;;
50769;SDS011;36740;48.698;11.472;2022-07-22T01:38:28;15.40;;;10.85;;
50769;SDS011;36740;48.698;11.472;2022-07-22T01:41:14;17.80;;;11.20;;
50769;SDS011;36740;48.698;11.472;2022-07-22T01:43:59;25.38;;;12.45;;
50769;SDS011;36740;48.698;11.472;2022-07-22T01:46:45;16.13;;;11.82;;
50769;SDS011;36740;48.698;11.472;2022-07-22T01:49:31;18.02;;;12.30;;
50769;SDS011;36740;48.698;11.472;2022-07-22T01:52:16;15.52;;;10.95;;
50769;SDS011;36740;48.698;11.472;2022-07-22T01:55:05;18.63;;;13.43;;
50769;SDS011;36740;48.698;11.472;2022-07-22T01:57:51;23.80;;;13.27;;
50769;SDS011;36740;48.698;11.472;2022-07-22T02:00:38;15.73;;;11.13;;
50769;SDS011;36740;48.698;11.472;2022-07-22T02:03:23;20.05;;;12.75;;
50769;SDS011;36740;48.698;11.472;2022-07-22T02:06:09;18.38;;;12.00;;
50769;SDS011;36740;48.698;11.472;2022-07-22T02:08:54;17.92;;;13.15;;
50769;SDS011;36740;48.698;11.472;2022-07-22T02:11:40;17.92;;;10.85;;
50769;SDS011;36740;48.698;11.472;2022-07-22T02:14:26;15.90;;;11.10;;
50769;SDS011;36740;48.698;11.472;2022-07-22T02:17:12;20.27;;;13.77;;
50769;SDS011;36740;48.698;11.472;2022-07-22T02:19:57;15.73;;;10.57;;
50769;SDS011;36740;48.698;11.472;2022-07-22T02:22:43;18.23;;;11.88;;
50769;SDS011;36740;48.698;11.472;2022-07-22T02:25:29;19.67;;;13.32;;
50769;SDS011;36740;48.698;11.472;2022-07-22T02:28:14;17.95;;;12.35;;
50769;SDS011;36740;48.698;11.472;2022-07-22T02:31:00;28.77;;;13.38;;
50769;SDS011;36740;48.698;11.472;2022-07-22T02:33:46;21.30;;;13.18;;
50769;SDS011;36740;48.698;11.472;2022-07-22T02:36:32;17.63;;;12.50;;
50769;SDS011;36740;48.698;11.472;2022-07-22T02:39:17;19.45;;;12.20;;
50769;SDS011;36740;48.698;11.472;2022-07-22T02:42:03;17.83;;;13.52;;
50769;SDS011;36740;48.698;11.472;2022-07-22T02:44:49;22.23;;;14.77;;
50769;SDS011;36740;48.698;11.472;2022-07-22T02:47:34;22.73;;;11.25;;
50769;SDS011;36740;48.698;11.472;2022-07-22T02:50:21;18.45;;;13.55;;
50769;SDS011;36740;48.698;11.472;2022-07-22T02:53:07;19.80;;;12.85;;
50769;SDS011;36740;48.698;11.472;2022-07-22T02:55:52;20.92;;;14.00;;
50769;SDS011;36740;48.698;11.472;2022-07-22T02:58:39;22.17;;;14.85;;
50769;SDS011;36740;48.698;11.472;2022-07-22T03:01:25;22.40;;;13.98;;
50769;SDS011;36740;48.698;11.472;2022-07-22T03:04:11;21.95;;;13.57;;
50769;SDS011;36740;48.698;11.472;2022-07-22T03:06:57;19.48;;;14.57;;
50769;SDS011;36740;48.698;11.472;2022-07-22T03:09:42;21.58;;;14.63;;
50769;SDS011;36740;48.698;11.472;2022-07-22T03:12:30;20.85;;;13.15;;
50769;SDS011;36740;48.698;11.472;2022-07-22T03:15:16;23.00;;;14.82;;
50769;SDS011;36740;48.698;11.472;2022-07-22T03:18:01;21.13;;;12.55;;
50769;SDS011;36740;48.698;11.472;2022-07-22T03:20:47;21.45;;;14.02;;
50769;SDS011;36740;48.698;11.472;2022-07-22T03:23:33;16.60;;;11.27;;
50769;SDS011;36740;48.698;11.472;2022-07-22T03:26:22;18.67;;;14.52;;
50769;SDS011;36740;48.698;11.472;2022-07-22T03:29:07;20.40;;;13.65;;
50769;SDS011;36740;48.698;11.472;2022-07-22T03:31:53;20.58;;;15.25;;
50769;SDS011;36740;48.698;11.472;2022-07-22T03:34:38;25.25;;;16.55;;
50769;SDS011;36740;48.698;11.472;2022-07-22T03:37:24;24.27;;;14.18;;
50769;SDS011;36740;48.698;11.472;2022-07-22T03:40:10;17.63;;;12.38;;
50769;SDS011;36740;48.698;11.472;2022-07-22T03:42:56;17.70;;;14.70;;
50769;SDS011;36740;48.698;11.472;2022-07-22T03:45:41;21.13;;;14.10;;
50769;SDS011;36740;48.698;11.472;2022-07-22T03:48:27;17.27;;;12.63;;
50769;SDS011;36740;48.698;11.472;2022-07-22T03:51:12;16.48;;;12.05;;
50769;SDS011;36740;48.698;11.472;2022-07-22T03:53:58;18.50;;;12.45;;
50769;SDS011;36740;48.698;11.472;2022-07-22T03:56:44;20.20;;;13.65;;
50769;SDS011;36740;48.698;11.472;2022-07-22T03:59:29;18.55;;;12.82;;
50769;SDS011;36740;48.698;11.472;2022-07-22T04:02:15;18.45;;;11.73;;
50769;SDS011;36740;48.698;11.472;2022-07-22T04:05:01;19.48;;;12.05;;
50769;SDS011;36740;48.698;11.472;2022-07-22T04:07:46;21.88;;;12.40;;
50769;SDS011;36740;48.698;11.472;2022-07-22T04:10:32;18.67;;;11.95;;
50769;SDS011;36740;48.698;11.472;2022-07-22T04:13:18;18.17;;;11.65;;
50769;SDS011;36740;48.698;11.472;2022-07-22T04:16:03;23.80;;;13.02;;
50769;SDS011;36740;48.698;11.472;2022-07-22T04:18:49;19.27;;;12.32;;
50769;SDS011;36740;48.698;11.472;2022-07-22T04:21:34;20.15;;;13.95;;
50769;SDS011;36740;48.698;11.472;2022-07-22T04:24:20;16.00;;;11.07;;
50769;SDS011;36740;48.698;11.472;2022-07-22T04:27:06;21.77;;;12.10;;
50769;SDS011;36740;48.698;11.472;2022-07-22T04:29:51;22.70;;;12.02;;
50769;SDS011;36740;48.698;11.472;2022-07-22T04:32:37;18.63;;;12.02;;
50769;SDS011;36740;48.698;11.472;2022-07-22T04:35:23;16.20;;;11.82;;
50769;SDS011;36740;48.698;11.472;2022-07-22T04:38:09;15.68;;;11.93;;
50769;SDS011;36740;48.698;11.472;2022-07-22T04:40:55;16.58;;;10.95;;
50769;SDS011;36740;48.698;11.472;2022-07-22T04:43:41;16.00;;;11.18;;
50769;SDS011;36740;48.698;11.472;2022-07-22T04:46:26;20.70;;;13.07;;
50769;SDS011;36740;48.698;11.472;2022-07-22T04:49:13;17.52;;;11.40;;
50769;SDS011;36740;48.698;11.472;2022-07-22T04:51:59;21.42;;;12.05;;
50769;SDS011;36740;48.698;11.472;2022-07-22T04:54:45;19.27;;;13.50;;
50769;SDS011;36740;48.698;11.472;2022-07-22T04:57:31;17.45;;;12.48;;
50769;SDS011;36740;48.698;11.472;2022-07-22T05:00:17;22.27;;;13.05;;
50769;SDS011;36740;48.698;11.472;2022-07-22T05:03:02;15.30;;;10.30;;
50769;SDS011;36740;48.698;11.472;2022-07-22T05:05:48;25.55;;;12.95;;
50769;SDS011;36740;48.698;11.472;2022-07-22T05:08:33;18.65;;;12.55;;
50769;SDS011;36740;48.698;11.472;2022-07-22T05:11:19;16.10;;;13.70;;
50769;SDS011;36740;48.698;11.472;2022-07-22T05:14:05;22.25;;;13.35;;
50769;SDS011;36740;48.698;11.472;2022-07-22T05:16:50;17.48;;;14.02;;
50769;SDS011;36740;48.698;11.472;2022-07-22T05:19:39;23.23;;;13.40;;
50769;SDS011;36740;48.698;11.472;2022-07-22T05:22:24;18.70;;;12.98;;
50769;SDS011;36740;48.698;11.472;2022-07-22T05:25:10;18.08;;;12.80;;
50769;SDS011;36740;48.698;11.472;2022-07-22T05:27:56;34.28;;;15.85;;
50769;SDS011;36740;48.698;11.472;2022-07-22T05:30:41;24.38;;;15.68;;
50769;SDS011;36740;48.698;11.472;2022-07-22T05:33:27;21.23;;;14.68;;
50769;SDS011;36740;48.698;11.472;2022-07-22T05:36:13;19.77;;;14.05;;
50769;SDS011;36740;48.698;11.472;2022-07-22T05:38:58;21.83;;;14.02;;
50769;SDS011;36740;48.698;11.472;2022-07-22T05:41:44;21.42;;;14.73;;
50769;SDS011;36740;48.698;11.472;2022-07-22T05:44:30;27.55;;;18.42;;
50769;SDS011;36740;48.698;11.472;2022-07-22T05:47:16;20.42;;;14.20;;
50769;SDS011;36740;48.698;11.472;2022-07-22T05:50:02;22.00;;;15.57;;
50769;SDS011;36740;48.698;11.472;2022-07-22T05:52:47;27.75;;;17.15;;
50769;SDS011;36740;48.698;11.472;2022-07-22T05:55:33;24.67;;;15.05;;
50769;SDS011;36740;48.698;11.472;2022-07-22T05:58:19;22.33;;;14.75;;
50769;SDS011;36740;48.698;11.472;2022-07-22T06:01:04;22.67;;;14.20;;
50769;SDS011;36740;48.698;11.472;2022-07-22T06:03:50;24.40;;;16.80;;
50769;SDS011;36740;48.698;11.472;2022-07-22T06:06:36;25.92;;;15.73;;
50769;SDS011;36740;48.698;11.472;2022-07-22T06:09:23;23.10;;;17.02;;
50769;SDS011;36740;48.698;11.472;2022-07-22T06:12:08;27.83;;;16.02;;
50769;SDS011;36740;48.698;11.472;2022-07-22T06:14:54;24.65;;;16.50;;
50769;SDS011;36740;48.698;11.472;2022-07-22T06:17:39;24.50;;;15.32;;
50769;SDS011;36740;48.698;11.472;2022-07-22T06:20:25;24.73;;;17.55;;
50769;SDS011;36740;48.698;11.472;2022-07-22T06:23:11;29.25;;;16.10;;
50769;SDS011;36740;48.698;11.472;2022-07-22T06:25:56;26.98;;;16.00;;
50769;SDS011;36740;48.698;11.472;2022-07-22T06:28:42;36.15;;;18.52;;
50769;SDS011;36740;48.698;11.472;2022-07-22T06:31:28;22.65;;;16.55;;
50769;SDS011;36740;48.698;11.472;2022-07-22T06:34:13;22.77;;;15.43;;
50769;SDS011;36740;48.698;11.472;2022-07-22T06:36:59;26.25;;;16.67;;
50769;SDS011;36740;48.698;11.472;2022-07-22T06:39:45;24.55;;;14.80;;
50769;SDS011;36740;48.698;11.472;2022-07-22T06:42:32;19.92;;;14.30;;
50769;SDS011;36740;48.698;11.472;2022-07-22T06:45:17;32.10;;;19.85;;
50769;SDS011;36740;48.698;11.472;2022-07-22T06:48:03;23.85;;;14.60;;
50769;SDS011;36740;48.698;11.472;2022-07-22T06:50:48;23.98;;;16.85;;
50769;SDS011;36740;48.698;11.472;2022-07-22T06:53:34;19.73;;;16.20;;
50769;SDS011;36740;48.698;11.472;2022-07-22T06:56:20;23.20;;;17.35;;
50769;SDS011;36740;48.698;11.472;2022-07-22T06:59:05;24.60;;;15.38;;
50769;SDS011;36740;48.698;11.472;2022-07-22T07:01:51;19.92;;;14.50;;
50769;SDS011;36740;48.698;11.472;2022-07-22T07:04:37;22.42;;;14.73;;
50769;SDS011;36740;48.698;11.472;2022-07-22T07:07:22;21.77;;;15.52;;
50769;SDS011;36740;48.698;11.472;2022-07-22T07:10:08;21.67;;;15.30;;
50769;SDS011;36740;48.698;11.472;2022-07-22T07:12:57;21.52;;;14.15;;
50769;SDS011;36740;48.698;11.472;2022-07-22T07:15:43;19.35;;;12.80;;
50769;SDS011;36740;48.698;11.472;2022-07-22T07:18:28;16.48;;;10.95;;
50769;SDS011;36740;48.698;11.472;2022-07-22T07:21:14;17.83;;;11.27;;
50769;SDS011;36740;48.698;11.472;2022-07-22T07:24:00;17.35;;;11.32;;
50769;SDS011;36740;48.698;11.472;2022-07-22T07:26:46;18.83;;;13.63;;
50769;SDS011;36740;48.698;11.472;2022-07-22T07:29:32;16.67;;;10.13;;
50769;SDS011;36740;48.698;11.472;2022-07-22T07:32:18;18.02;;;12.07;;
50769;SDS011;36740;48.698;11.472;2022-07-22T07:35:04;14.70;;;9.38;;
50769;SDS011;36740;48.698;11.472;2022-07-22T07:37:50;17.25;;;10.88;;
50769;SDS011;36740;48.698;11.472;2022-07-22T07:40:36;13.68;;;10.25;;
50769;SDS011;36740;48.698;11.472;2022-07-22T07:43:21;15.57;;;9.90;;
50769;SDS011;36740;48.698;11.472;2022-07-22T07:46:07;13.57;;;9.73;;
50769;SDS011;36740;48.698;11.472;2022-07-22T07:48:53;14.20;;;10.38;;
50769;SDS011;36740;48.698;11.472;2022-07-22T07:51:39;15.23;;;9.48;;
50769;SDS011;36740;48.698;11.472;2022-07-22T07:54:24;17.25;;;9.60;;
50769;SDS011;36740;48.698;11.472;2022-07-22T07:57:10;12.80;;;8.90;;
50769;SDS011;36740;48.698;11.472;2022-07-22T07:59:56;14.57;;;9.40;;
50769;SDS011;36740;48.698;11.472;2022-07-22T08:02:42;13.52;;;8.80;;
50769;SDS011;36740;48.698;11.472;2022-07-22T08:05:28;11.48;;;8.93;;
50769;SDS011;36740;48.698;11.472;2022-07-22T08:08:14;14.75;;;9.98;;
50769;SDS011;36740;48.698;11.472;2022-07-22T08:10:59;13.48;;;7.70;;
50769;SDS011;36740;48.698;11.472;2022-07-22T08:13:45;11.48;;;7.93;;
50769;SDS011;36740;48.698;11.472;2022-07-22T08:16:30;9.00;;;6.70;;
50769;SDS011;36740;48.698;11.472;2022-07-22T08:19:16;10.15;;;7.53;;
50769;SDS011;36740;48.698;11.472;2022-07-22T08:22:02;12.27;;;7.32;;
50769;SDS011;36740;48.698;11.472;2022-07-22T08:24:47;12.10;;;7.20;;
50769;SDS011;36740;48.698;11.472;2022-07-22T08:27:33;15.40;;;8.90;;
50769;SDS011;36740;48.698;11.472;2022-07-22T08:30:19;10.18;;;6.93;;
50769;SDS011;36740;48.698;11.472;2022-07-22T08:33:05;11.13;;;7.13;;
50769;SDS011;36740;48.698;11.472;2022-07-22T08:35:51;13.32;;;7.28;;
50769;SDS011;36740;48.698;11.472;2022-07-22T08:38:36;13.15;;;7.20;;
50769;SDS011;36740;48.698;11.472;2022-07-22T08:41:22;13.25;;;6.68;;
50769;SDS011;36740;48.698;11.472;2022-07-22T08:44:09;13.40;;;7.20;;
50769;SDS011;36740;48.698;11.472;2022-07-22T08:46:55;10.60;;;6.28;;
50769;SDS011;36740;48.698;11.472;2022-07-22T08:49:40;12.13;;;7.82;;
50769;SDS011;36740;48.698;11.472;2022-07-22T08:52:26;10.63;;;6.70;;
50769;SDS011;36740;48.698;11.472;2022-07-22T08:55:12;13.88;;;7.55;;
50769;SDS011;36740;48.698;11.472;2022-07-22T08:57:57;12.82;;;6.70;;
50769;SDS011;36740;48.698;11.472;2022-07-22T09:00:43;14.27;;;7.70;;
50769;SDS011;36740;48.698;11.472;2022-07-22T09:03:28;11.52;;;7.45;;
50769;SDS011;36740;48.698;11.472;2022-07-22T09:06:15;15.93;;;7.60;;
50769;SDS011;36740;48.698;11.472;2022-07-22T09:09:02;11.68;;;7.60;;
50769;SDS011;36740;48.698;11.472;2022-07-22T09:11:48;13.55;;;7.88;;
50769;SDS011;36740;48.698;11.472;2022-07-22T09:14:43;13.32;;;8.00;;
50769;SDS011;36740;48.698;11.472;2022-07-22T09:17:33;12.02;;;8.25;;
50769;SDS011;36740;48.698;11.472;2022-07-22T09:20:21;15.55;;;8.07;;
50769;SDS011;36740;48.698;11.472;2022-07-22T09:23:10;17.73;;;9.15;;
50769;SDS011;36740;48.698;11.472;2022-07-22T09:28:53;15.48;;;9.77;;
50769;SDS011;36740;48.698;11.472;2022-07-22T09:31:38;10.68;;;8.60;;
50769;SDS011;36740;48.698;11.472;2022-07-22T09:34:28;15.52;;;10.13;;
50769;SDS011;36740;48.698;11.472;2022-07-22T09:37:14;13.57;;;9.57;;
50769;SDS011;36740;48.698;11.472;2022-07-22T09:40:13;16.25;;;9.20;;
50769;SDS011;36740;48.698;11.472;2022-07-22T09:42:59;13.98;;;10.43;;
50769;SDS011;36740;48.698;11.472;2022-07-22T09:48:34;13.60;;;9.40;;
50769;SDS011;36740;48.698;11.472;2022-07-22T09:51:19;16.15;;;9.88;;
50769;SDS011;36740;48.698;11.472;2022-07-22T09:54:05;12.50;;;8.55;;
50769;SDS011;36740;48.698;11.472;2022-07-22T09:56:53;15.20;;;9.40;;
50769;SDS011;36740;48.698;11.472;2022-07-22T09:59:38;14.32;;;9.45;;
50769;SDS011;36740;48.698;11.472;2022-07-22T10:02:24;17.33;;;9.50;;
50769;SDS011;36740;48.698;11.472;2022-07-22T10:05:11;14.60;;;8.65;;
50769;SDS011;36740;48.698;11.472;2022-07-22T10:07:56;16.65;;;9.15;;
50769;SDS011;36740;48.698;11.472;2022-07-22T10:10:42;12.85;;;8.18;;
50769;SDS011;36740;48.698;11.472;2022-07-22T10:13:28;16.10;;;9.45;;
50769;SDS011;36740;48.698;11.472;2022-07-22T10:16:14;15.23;;;8.27;;
50769;SDS011;36740;48.698;11.472;2022-07-22T10:19:00;12.85;;;8.73;;
50769;SDS011;36740;48.698;11.472;2022-07-22T10:21:46;15.75;;;10.88;;
50769;SDS011;36740;48.698;11.472;2022-07-22T10:24:31;19.45;;;8.18;;
50769;SDS011;36740;48.698;11.472;2022-07-22T10:27:22;13.43;;;7.93;;
50769;SDS011;36740;48.698;11.472;2022-07-22T10:30:33;14.95;;;8.55;;
50769;SDS011;36740;48.698;11.472;2022-07-22T10:33:20;11.80;;;7.75;;
50769;SDS011;36740;48.698;11.472;2022-07-22T10:36:06;13.57;;;8.63;;
50769;SDS011;36740;48.698;11.472;2022-07-22T10:39:02;13.13;;;9.07;;
50769;SDS011;36740;48.698;11.472;2022-07-22T10:41:48;12.98;;;8.20;;
50769;SDS011;36740;48.698;11.472;2022-07-22T10:44:46;14.48;;;7.88;;
50769;SDS011;36740;48.698;11.472;2022-07-22T10:53:23;14.80;;;8.52;;
50769;SDS011;36740;48.698;11.472;2022-07-22T11:01:44;11.60;;;7.78;;
50769;SDS011;36740;48.698;11.472;2022-07-22T11:04:31;12.02;;;7.53;;
50769;SDS011;36740;48.698;11.472;2022-07-22T11:07:18;12.85;;;7.30;;
50769;SDS011;36740;48.698;11.472;2022-07-22T11:12:55;12.75;;;7.88;;
50769;SDS011;36740;48.698;11.472;2022-07-22T11:15:41;10.00;;;6.20;;
50769;SDS011;36740;48.698;11.472;2022-07-22T11:18:43;10.50;;;7.38;;
50769;SDS011;36740;48.698;11.472;2022-07-22T11:21:29;9.75;;;6.72;;
50769;SDS011;36740;48.698;11.472;2022-07-22T11:24:15;11.88;;;9.05;;
50769;SDS011;36740;48.698;11.472;2022-07-22T11:27:02;13.57;;;8.13;;
50769;SDS011;36740;48.698;11.472;2022-07-22T11:29:49;11.82;;;8.15;;
50769;SDS011;36740;48.698;11.472;2022-07-22T11:32:41;10.35;;;7.30;;
50769;SDS011;36740;48.698;11.472;2022-07-22T11:35:26;11.68;;;6.88;;
50769;SDS011;36740;48.698;11.472;2022-07-22T11:38:12;9.57;;;6.53;;
50769;SDS011;36740;48.698;11.472;2022-07-22T11:40:58;11.02;;;7.55;;
50769;SDS011;36740;48.698;11.472;2022-07-22T11:43:46;12.38;;;7.75;;
50769;SDS011;36740;48.698;11.472;2022-07-22T11:46:36;13.90;;;7.20;;
50769;SDS011;36740;48.698;11.472;2022-07-22T11:49:22;11.63;;;6.05;;
50769;SDS011;36740;48.698;11.472;2022-07-22T11:52:09;13.00;;;7.10;;
50769;SDS011;36740;48.698;11.472;2022-07-22T11:54:57;10.98;;;7.03;;
50769;SDS011;36740;48.698;11.472;2022-07-22T11:57:47;10.00;;;6.40;;
50769;SDS011;36740;48.698;11.472;2022-07-22T12:00:33;13.23;;;7.75;;
50769;SDS011;36740;48.698;11.472;2022-07-22T12:03:18;10.95;;;6.80;;
50769;SDS011;36740;48.698;11.472;2022-07-22T12:06:06;10.68;;;6.68;;
50769;SDS011;36740;48.698;11.472;2022-07-22T12:08:53;11.25;;;6.75;;
50769;SDS011;36740;48.698;11.472;2022-07-22T12:11:40;11.20;;;6.80;;
50769;SDS011;36740;48.698;11.472;2022-07-22T12:14:27;10.93;;;6.28;;
50769;SDS011;36740;48.698;11.472;2022-07-22T12:17:13;9.60;;;5.95;;
50769;SDS011;36740;48.698;11.472;2022-07-22T12:20:12;13.90;;;6.18;;
50769;SDS011;36740;48.698;11.472;2022-07-22T12:23:00;14.25;;;6.18;;
50769;SDS011;36740;48.698;11.472;2022-07-22T12:28:36;10.40;;;7.30;;
50769;SDS011;36740;48.698;11.472;2022-07-22T12:31:21;14.10;;;7.72;;
50769;SDS011;36740;48.698;11.472;2022-07-22T12:34:07;11.40;;;6.82;;
50769;SDS011;36740;48.698;11.472;2022-07-22T12:36:53;8.55;;;6.07;;
50769;SDS011;36740;48.698;11.472;2022-07-22T12:39:38;12.25;;;6.43;;
50769;SDS011;36740;48.698;11.472;2022-07-22T12:42:25;11.88;;;6.82;;
50769;SDS011;36740;48.698;11.472;2022-07-22T12:45:12;14.73;;;6.97;;
50769;SDS011;36740;48.698;11.472;2022-07-22T12:50:55;9.38;;;6.07;;
50769;SDS011;36740;48.698;11.472;2022-07-22T12:53:41;9.45;;;5.70;;
50769;SDS011;36740;48.698;11.472;2022-07-22T12:56:27;13.80;;;7.10;;
50769;SDS011;36740;48.698;11.472;2022-07-22T12:59:13;12.63;;;6.38;;
50769;SDS011;36740;48.698;11.472;2022-07-22T13:01:58;8.88;;;5.90;;
50769;SDS011;36740;48.698;11.472;2022-07-22T13:04:44;13.70;;;6.95;;
50769;SDS011;36740;48.698;11.472;2022-07-22T13:07:30;10.55;;;5.93;;
50769;SDS011;36740;48.698;11.472;2022-07-22T13:10:15;10.95;;;6.72;;
50769;SDS011;36740;48.698;11.472;2022-07-22T13:13:01;9.57;;;6.47;;
50769;SDS011;36740;48.698;11.472;2022-07-22T13:15:47;10.57;;;7.10;;
50769;SDS011;36740;48.698;11.472;2022-07-22T13:18:33;9.68;;;6.63;;
50769;SDS011;36740;48.698;11.472;2022-07-22T13:21:19;9.13;;;6.05;;
50769;SDS011;36740;48.698;11.472;2022-07-22T13:24:05;9.00;;;5.45;;
50769;SDS011;36740;48.698;11.472;2022-07-22T13:26:51;13.05;;;7.40;;
50769;SDS011;36740;48.698;11.472;2022-07-22T13:29:36;7.82;;;5.20;;
50769;SDS011;36740;48.698;11.472;2022-07-22T13:32:22;10.38;;;6.05;;
50769;SDS011;36740;48.698;11.472;2022-07-22T13:35:08;10.23;;;6.07;;
50769;SDS011;36740;48.698;11.472;2022-07-22T13:37:54;9.18;;;5.85;;
50769;SDS011;36740;48.698;11.472;2022-07-22T13:40:40;10.43;;;5.65;;
50769;SDS011;36740;48.698;11.472;2022-07-22T13:43:26;11.35;;;7.07;;
50769;SDS011;36740;48.698;11.472;2022-07-22T13:46:11;11.00;;;7.10;;
50769;SDS011;36740;48.698;11.472;2022-07-22T13:48:57;8.43;;;5.63;;
50769;SDS011;36740;48.698;11.472;2022-07-22T13:51:43;8.98;;;5.93;;
50769;SDS011;36740;48.698;11.472;2022-07-22T13:54:29;10.45;;;6.57;;
50769;SDS011;36740;48.698;11.472;2022-07-22T13:57:15;13.95;;;5.70;;
50769;SDS011;36740;48.698;11.472;2022-07-22T14:00:02;12.80;;;7.28;;
50769;SDS011;36740;48.698;11.472;2022-07-22T14:02:48;12.65;;;7.10;;
50769;SDS011;36740;48.698;11.472;2022-07-22T14:05:33;10.02;;;6.18;;
50769;SDS011;36740;48.698;11.472;2022-07-22T14:08:19;7.05;;;4.35;;
50769;SDS011;36740;48.698;11.472;2022-07-22T14:11:08;9.77;;;5.35;;
50769;SDS011;36740;48.698;11.472;2022-07-22T14:13:55;11.60;;;6.22;;
50769;SDS011;36740;48.698;11.472;2022-07-22T14:16:41;8.80;;;5.80;;
50769;SDS011;36740;48.698;11.472;2022-07-22T14:19:27;11.25;;;5.65;;
50769;SDS011;36740;48.698;11.472;2022-07-22T14:22:13;11.70;;;5.70;;
50769;SDS011;36740;48.698;11.472;2022-07-22T14:24:58;11.27;;;5.45;;
50769;SDS011;36740;48.698;11.472;2022-07-22T14:27:44;13.20;;;4.93;;
50769;SDS011;36740;48.698;11.472;2022-07-22T14:30:30;16.48;;;5.43;;
50769;SDS011;36740;48.698;11.472;2022-07-22T14:33:16;13.32;;;6.75;;
50769;SDS011;36740;48.698;11.472;2022-07-22T14:36:01;15.18;;;6.57;;
50769;SDS011;36740;48.698;11.472;2022-07-22T14:38:53;8.18;;;5.70;;
50769;SDS011;36740;48.698;11.472;2022-07-22T14:41:40;9.95;;;5.95;;
50769;SDS011;36740;48.698;11.472;2022-07-22T14:44:26;10.65;;;5.75;;
50769;SDS011;36740;48.698;11.472;2022-07-22T14:47:11;9.80;;;6.40;;
50769;SDS011;36740;48.698;11.472;2022-07-22T14:49:57;10.23;;;6.10;;
50769;SDS011;36740;48.698;11.472;2022-07-22T14:52:43;10.38;;;5.97;;
50769;SDS011;36740;48.698;11.472;2022-07-22T14:55:28;9.48;;;5.68;;
50769;SDS011;36740;48.698;11.472;2022-07-22T14:58:15;7.53;;;5.70;;
50769;SDS011;36740;48.698;11.472;2022-07-22T15:01:00;10.88;;;6.68;;
50769;SDS011;36740;48.698;11.472;2022-07-22T15:03:46;9.38;;;5.53;;
50769;SDS011;36740;48.698;11.472;2022-07-22T15:06:32;13.55;;;6.57;;
50769;SDS011;36740;48.698;11.472;2022-07-22T15:09:18;9.82;;;5.65;;
50769;SDS011;36740;48.698;11.472;2022-07-22T15:12:04;9.88;;;5.80;;
50769;SDS011;36740;48.698;11.472;2022-07-22T15:14:49;8.25;;;4.88;;
50769;SDS011;36740;48.698;11.472;2022-07-22T15:17:36;9.75;;;5.75;;
50769;SDS011;36740;48.698;11.472;2022-07-22T15:20:21;9.65;;;5.45;;
50769;SDS011;36740;48.698;11.472;2022-07-22T15:23:09;9.02;;;5.05;;
50769;SDS011;36740;48.698;11.472;2022-07-22T15:25:55;10.50;;;5.72;;
50769;SDS011;36740;48.698;11.472;2022-07-22T15:28:41;7.30;;;4.50;;
50769;SDS011;36740;48.698;11.472;2022-07-22T15:31:28;8.48;;;5.32;;
50769;SDS011;36740;48.698;11.472;2022-07-22T15:34:15;8.18;;;4.55;;
50769;SDS011;36740;48.698;11.472;2022-07-22T15:37:01;9.55;;;5.35;;
50769;SDS011;36740;48.698;11.472;2022-07-22T15:39:46;10.20;;;5.47;;
50769;SDS011;36740;48.698;11.472;2022-07-22T15:42:32;12.23;;;4.88;;
50769;SDS011;36740;48.698;11.472;2022-07-22T15:45:18;10.32;;;6.13;;
50769;SDS011;36740;48.698;11.472;2022-07-22T15:48:04;8.05;;;5.10;;
50769;SDS011;36740;48.698;11.472;2022-07-22T15:50:51;12.85;;;5.40;;
50769;SDS011;36740;48.698;11.472;2022-07-22T15:53:37;9.95;;;5.60;;
50769;SDS011;36740;48.698;11.472;2022-07-22T15:56:22;15.57;;;5.40;;
50769;SDS011;36740;48.698;11.472;2022-07-22T15:59:08;8.07;;;5.35;;
50769;SDS011;36740;48.698;11.472;2022-07-22T16:02:12;8.70;;;5.32;;
50769;SDS011;36740;48.698;11.472;2022-07-22T16:05:00;9.02;;;5.65;;
50769;SDS011;36740;48.698;11.472;2022-07-22T16:07:46;11.80;;;5.00;;
50769;SDS011;36740;48.698;11.472;2022-07-22T16:10:32;8.20;;;4.68;;
50769;SDS011;36740;48.698;11.472;2022-07-22T16:13:18;10.40;;;5.63;;
50769;SDS011;36740;48.698;11.472;2022-07-22T16:16:04;30.60;;;16.73;;
50769;SDS011;36740;48.698;11.472;2022-07-22T16:18:49;18.45;;;11.90;;
50769;SDS011;36740;48.698;11.472;2022-07-22T16:21:35;11.35;;;7.63;;
50769;SDS011;36740;48.698;11.472;2022-07-22T16:24:21;8.20;;;4.63;;
50769;SDS011;36740;48.698;11.472;2022-07-22T16:27:06;8.07;;;5.35;;
50769;SDS011;36740;48.698;11.472;2022-07-22T16:29:52;9.35;;;5.22;;
50769;SDS011;36740;48.698;11.472;2022-07-22T16:32:38;9.00;;;4.97;;